sensor_id;sensor_type;location;lat;lon;timestamp;temperature;humidity
56298;DHT22;42208;6.376;-10.782;2023-02-03T00:00:07;27.30;99.90
56298;DHT22;42208;6.376;-10.782;2023-02-03T00:02:38;27.30;99.90
56298;DHT22;42208;6.376;-10.782;2023-02-03T00:05:07;27.30;99.90
56298;DHT22;42208;6.376;-10.782;2023-02-03T00:07:37;27.30;99.90
56298;DHT22;42208;6.376;-10.782;2023-02-03T00:10:06;27.30;99.90
56298;DHT22;42208;6.376;-10.782;2023-02-03T00:12:35;27.30;99.90
56298;DHT22;42208;6.376;-10.782;2023-02-03T00:15:04;27.30;99.90
56298;DHT22;42208;6.376;-10.782;2023-02-03T00:17:32;27.30;99.90
56298;DHT22;42208;6.376;-10.782;2023-02-03T00:20:01;27.30;99.90
56298;DHT22;42208;6.376;-10.782;2023-02-03T00:22:29;27.30;99.90
56298;DHT22;42208;6.376;-10.782;2023-02-03T00:24:57;27.20;99.90
56298;DHT22;42208;6.376;-10.782;2023-02-03T00:27:26;27.20;99.90
56298;DHT22;42208;6.376;-10.782;2023-02-03T00:29:54;27.20;99.90
56298;DHT22;42208;6.376;-10.782;2023-02-03T00:32:23;27.20;99.90
56298;DHT22;42208;6.376;-10.782;2023-02-03T00:34:51;27.20;99.90
56298;DHT22;42208;6.376;-10.782;2023-02-03T00:37:21;27.20;99.90
56298;DHT22;42208;6.376;-10.782;2023-02-03T00:39:49;27.10;99.90
56298;DHT22;42208;6.376;-10.782;2023-02-03T00:42:18;27.10;99.90
56298;DHT22;42208;6.376;-10.782;2023-02-03T00:44:46;27.20;99.90
56298;DHT22;42208;6.376;-10.782;2023-02-03T00:47:15;27.10;99.90
56298;DHT22;42208;6.376;-10.782;2023-02-03T00:49:43;27.10;99.90
56298;DHT22;42208;6.376;-10.782;2023-02-03T00:52:12;27.10;99.90
56298;DHT22;42208;6.376;-10.782;2023-02-03T00:54:40;27.10;99.90
56298;DHT22;42208;6.376;-10.782;2023-02-03T00:57:08;27.10;99.90
56298;DHT22;42208;6.376;-10.782;2023-02-03T00:59:38;27.10;99.90
56298;DHT22;42208;6.376;-10.782;2023-02-03T01:02:08;27.10;99.90
56298;DHT22;42208;6.376;-10.782;2023-02-03T01:04:37;27.10;99.90
56298;DHT22;42208;6.376;-10.782;2023-02-03T01:07:05;27.00;99.90
56298;DHT22;42208;6.376;-10.782;2023-02-03T01:09:35;27.10;99.90
56298;DHT22;42208;6.376;-10.782;2023-02-03T01:12:04;27.00;99.90
56298;DHT22;42208;6.376;-10.782;2023-02-03T01:14:33;27.00;99.90
56298;DHT22;42208;6.376;-10.782;2023-02-03T01:17:03;27.00;99.90
56298;DHT22;42208;6.376;-10.782;2023-02-03T01:19:31;27.00;99.90
56298;DHT22;42208;6.376;-10.782;2023-02-03T01:22:00;27.00;99.90
56298;DHT22;42208;6.376;-10.782;2023-02-03T01:24:29;27.00;99.90
56298;DHT22;42208;6.376;-10.782;2023-02-03T01:26:57;27.00;99.90
56298;DHT22;42208;6.376;-10.782;2023-02-03T01:29:27;27.00;99.90
56298;DHT22;42208;6.376;-10.782;2023-02-03T01:31:55;27.00;99.90
56298;DHT22;42208;6.376;-10.782;2023-02-03T01:34:24;27.00;99.90
56298;DHT22;42208;6.376;-10.782;2023-02-03T01:36:52;26.90;99.90
56298;DHT22;42208;6.376;-10.782;2023-02-03T01:39:21;26.90;99.90
56298;DHT22;42208;6.376;-10.782;2023-02-03T01:41:49;26.90;99.90
56298;DHT22;42208;6.376;-10.782;2023-02-03T01:44:46;26.90;99.90
56298;DHT22;42208;6.376;-10.782;2023-02-03T01:47:43;26.90;99.90
56298;DHT22;42208;6.376;-10.782;2023-02-03T01:50:15;26.80;99.90
56298;DHT22;42208;6.376;-10.782;2023-02-03T01:52:48;26.90;99.90
56298;DHT22;42208;6.376;-10.782;2023-02-03T01:55:21;26.80;99.90
56298;DHT22;42208;6.376;-10.782;2023-02-03T01:58:35;26.80;99.90
56298;DHT22;42208;6.376;-10.782;2023-02-03T02:00:57;26.80;99.90
56298;DHT22;42208;6.376;-10.782;2023-02-03T02:03:53;26.80;99.90
56298;DHT22;42208;6.376;-10.782;2023-02-03T02:06:22;26.70;99.90
56298;DHT22;42208;6.376;-10.782;2023-02-03T02:08:52;26.80;99.90
56298;DHT22;42208;6.376;-10.782;2023-02-03T02:11:21;26.80;99.90
56298;DHT22;42208;6.376;-10.782;2023-02-03T02:13:50;26.80;99.90
56298;DHT22;42208;6.376;-10.782;2023-02-03T02:16:52;26.70;99.90
56298;DHT22;42208;6.376;-10.782;2023-02-03T02:32:29;26.60;99.90
56298;DHT22;42208;6.376;-10.782;2023-02-03T02:40:35;26.60;99.90
56298;DHT22;42208;6.376;-10.782;2023-02-03T02:46:36;26.60;99.90
56298;DHT22;42208;6.376;-10.782;2023-02-03T02:49:18;26.60;99.90
56298;DHT22;42208;6.376;-10.782;2023-02-03T02:51:47;26.50;99.90
56298;DHT22;42208;6.376;-10.782;2023-02-03T02:54:22;26.50;99.90
56298;DHT22;42208;6.376;-10.782;2023-02-03T02:56:55;26.60;99.90
56298;DHT22;42208;6.376;-10.782;2023-02-03T02:59:27;26.50;99.90
56298;DHT22;42208;6.376;-10.782;2023-02-03T03:01:56;26.50;99.90
56298;DHT22;42208;6.376;-10.782;2023-02-03T03:04:26;26.50;99.90
56298;DHT22;42208;6.376;-10.782;2023-02-03T03:07:21;26.50;99.90
56298;DHT22;42208;6.376;-10.782;2023-02-03T03:09:54;26.40;99.90
56298;DHT22;42208;6.376;-10.782;2023-02-03T03:12:34;26.40;99.90
56298;DHT22;42208;6.376;-10.782;2023-02-03T03:15:07;26.40;99.90
56298;DHT22;42208;6.376;-10.782;2023-02-03T03:18:32;26.40;99.90
56298;DHT22;42208;6.376;-10.782;2023-02-03T03:20:42;26.40;99.90
56298;DHT22;42208;6.376;-10.782;2023-02-03T03:23:49;26.40;99.90
56298;DHT22;42208;6.376;-10.782;2023-02-03T03:28:56;26.30;99.90
56298;DHT22;42208;6.376;-10.782;2023-02-03T03:31:27;26.30;99.90
56298;DHT22;42208;6.376;-10.782;2023-02-03T03:33:55;26.40;99.90
56298;DHT22;42208;6.376;-10.782;2023-02-03T03:36:25;26.30;99.90
56298;DHT22;42208;6.376;-10.782;2023-02-03T03:39:02;26.30;99.90
56298;DHT22;42208;6.376;-10.782;2023-02-03T03:44:31;26.20;99.90
56298;DHT22;42208;6.376;-10.782;2023-02-03T03:47:36;26.20;99.90
56298;DHT22;42208;6.376;-10.782;2023-02-03T03:50:09;26.20;99.90
56298;DHT22;42208;6.376;-10.782;2023-02-03T03:52:39;26.20;99.90
56298;DHT22;42208;6.376;-10.782;2023-02-03T03:55:09;26.20;99.90
56298;DHT22;42208;6.376;-10.782;2023-02-03T03:57:47;26.20;99.90
56298;DHT22;42208;6.376;-10.782;2023-02-03T04:00:19;26.20;99.90
56298;DHT22;42208;6.376;-10.782;2023-02-03T04:02:51;26.20;99.90
56298;DHT22;42208;6.376;-10.782;2023-02-03T04:05:21;26.20;99.90
56298;DHT22;42208;6.376;-10.782;2023-02-03T04:07:50;26.30;99.90
56298;DHT22;42208;6.376;-10.782;2023-02-03T04:10:27;26.30;99.90
56298;DHT22;42208;6.376;-10.782;2023-02-03T04:13:00;26.30;99.90
56298;DHT22;42208;6.376;-10.782;2023-02-03T04:15:29;26.30;99.90
56298;DHT22;42208;6.376;-10.782;2023-02-03T04:17:58;26.20;99.90
56298;DHT22;42208;6.376;-10.782;2023-02-03T04:20:27;26.20;99.90
56298;DHT22;42208;6.376;-10.782;2023-02-03T04:22:56;26.10;99.90
56298;DHT22;42208;6.376;-10.782;2023-02-03T04:25:25;26.10;99.90
56298;DHT22;42208;6.376;-10.782;2023-02-03T04:27:54;26.00;99.90
56298;DHT22;42208;6.376;-10.782;2023-02-03T04:30:23;26.00;99.90
56298;DHT22;42208;6.376;-10.782;2023-02-03T04:32:52;26.00;99.90
56298;DHT22;42208;6.376;-10.782;2023-02-03T04:35:21;26.00;99.90
56298;DHT22;42208;6.376;-10.782;2023-02-03T04:37:49;26.00;99.90
56298;DHT22;42208;6.376;-10.782;2023-02-03T04:40:18;26.00;99.90
56298;DHT22;42208;6.376;-10.782;2023-02-03T04:42:46;26.00;99.90
56298;DHT22;42208;6.376;-10.782;2023-02-03T04:45:15;26.00;99.90
56298;DHT22;42208;6.376;-10.782;2023-02-03T04:47:43;26.00;99.90
56298;DHT22;42208;6.376;-10.782;2023-02-03T04:50:12;26.00;99.90
56298;DHT22;42208;6.376;-10.782;2023-02-03T04:52:40;26.00;99.90
56298;DHT22;42208;6.376;-10.782;2023-02-03T04:55:09;26.00;99.90
56298;DHT22;42208;6.376;-10.782;2023-02-03T04:57:37;26.00;99.90
56298;DHT22;42208;6.376;-10.782;2023-02-03T05:00:06;26.00;99.90
56298;DHT22;42208;6.376;-10.782;2023-02-03T05:02:34;26.00;99.90
56298;DHT22;42208;6.376;-10.782;2023-02-03T05:05:03;26.00;99.90
56298;DHT22;42208;6.376;-10.782;2023-02-03T05:07:31;25.90;99.90
56298;DHT22;42208;6.376;-10.782;2023-02-03T05:10:00;26.00;99.90
56298;DHT22;42208;6.376;-10.782;2023-02-03T05:12:28;26.00;99.90
56298;DHT22;42208;6.376;-10.782;2023-02-03T05:14:56;25.90;99.90
56298;DHT22;42208;6.376;-10.782;2023-02-03T05:17:25;25.90;99.90
56298;DHT22;42208;6.376;-10.782;2023-02-03T05:19:53;26.00;99.90
56298;DHT22;42208;6.376;-10.782;2023-02-03T05:22:21;26.00;99.90
56298;DHT22;42208;6.376;-10.782;2023-02-03T05:24:50;26.00;99.90
56298;DHT22;42208;6.376;-10.782;2023-02-03T05:27:18;25.90;99.90
56298;DHT22;42208;6.376;-10.782;2023-02-03T05:29:46;26.00;99.90
56298;DHT22;42208;6.376;-10.782;2023-02-03T05:32:15;25.90;99.90
56298;DHT22;42208;6.376;-10.782;2023-02-03T05:34:43;25.90;99.90
56298;DHT22;42208;6.376;-10.782;2023-02-03T05:37:12;26.00;99.90
56298;DHT22;42208;6.376;-10.782;2023-02-03T05:39:40;26.00;99.90
56298;DHT22;42208;6.376;-10.782;2023-02-03T05:42:08;26.10;99.90
56298;DHT22;42208;6.376;-10.782;2023-02-03T05:44:37;26.10;99.90
56298;DHT22;42208;6.376;-10.782;2023-02-03T05:47:05;26.10;99.90
56298;DHT22;42208;6.376;-10.782;2023-02-03T05:49:34;26.10;99.90
56298;DHT22;42208;6.376;-10.782;2023-02-03T05:52:02;26.10;99.90
56298;DHT22;42208;6.376;-10.782;2023-02-03T05:54:30;26.10;99.90
56298;DHT22;42208;6.376;-10.782;2023-02-03T05:56:59;26.10;99.90
56298;DHT22;42208;6.376;-10.782;2023-02-03T05:59:31;26.10;99.90
56298;DHT22;42208;6.376;-10.782;2023-02-03T06:02:00;26.10;99.90
56298;DHT22;42208;6.376;-10.782;2023-02-03T06:04:28;26.20;99.90
56298;DHT22;42208;6.376;-10.782;2023-02-03T06:06:57;26.20;99.90
56298;DHT22;42208;6.376;-10.782;2023-02-03T06:09:25;26.10;99.90
56298;DHT22;42208;6.376;-10.782;2023-02-03T06:11:53;26.20;99.90
56298;DHT22;42208;6.376;-10.782;2023-02-03T06:14:22;26.20;99.90
56298;DHT22;42208;6.376;-10.782;2023-02-03T06:16:50;26.20;99.90
56298;DHT22;42208;6.376;-10.782;2023-02-03T06:19:40;26.20;99.90
56298;DHT22;42208;6.376;-10.782;2023-02-03T06:22:08;26.20;99.90
56298;DHT22;42208;6.376;-10.782;2023-02-03T06:24:37;26.20;99.90
56298;DHT22;42208;6.376;-10.782;2023-02-03T06:27:05;26.20;99.90
56298;DHT22;42208;6.376;-10.782;2023-02-03T06:29:33;26.10;99.90
56298;DHT22;42208;6.376;-10.782;2023-02-03T06:32:02;26.10;99.90
56298;DHT22;42208;6.376;-10.782;2023-02-03T06:34:31;26.10;99.90
56298;DHT22;42208;6.376;-10.782;2023-02-03T06:36:59;26.10;99.90
56298;DHT22;42208;6.376;-10.782;2023-02-03T06:39:28;26.10;99.90
56298;DHT22;42208;6.376;-10.782;2023-02-03T06:41:56;26.10;99.90
56298;DHT22;42208;6.376;-10.782;2023-02-03T06:44:24;26.00;99.90
56298;DHT22;42208;6.376;-10.782;2023-02-03T06:46:53;26.00;99.90
56298;DHT22;42208;6.376;-10.782;2023-02-03T06:49:21;26.00;99.90
56298;DHT22;42208;6.376;-10.782;2023-02-03T06:51:50;26.10;99.90
56298;DHT22;42208;6.376;-10.782;2023-02-03T06:54:18;26.00;99.90
56298;DHT22;42208;6.376;-10.782;2023-02-03T06:56:47;26.00;99.90
56298;DHT22;42208;6.376;-10.782;2023-02-03T06:59:15;26.00;99.90
56298;DHT22;42208;6.376;-10.782;2023-02-03T07:01:43;26.00;99.90
56298;DHT22;42208;6.376;-10.782;2023-02-03T07:04:12;26.00;99.90
56298;DHT22;42208;6.376;-10.782;2023-02-03T07:06:40;26.00;99.90
56298;DHT22;42208;6.376;-10.782;2023-02-03T07:09:08;26.10;99.90
56298;DHT22;42208;6.376;-10.782;2023-02-03T07:11:37;26.00;99.90
56298;DHT22;42208;6.376;-10.782;2023-02-03T07:14:05;26.10;99.90
56298;DHT22;42208;6.376;-10.782;2023-02-03T07:16:33;26.10;99.90
56298;DHT22;42208;6.376;-10.782;2023-02-03T07:19:02;26.00;99.90
56298;DHT22;42208;6.376;-10.782;2023-02-03T07:21:31;26.00;99.90
56298;DHT22;42208;6.376;-10.782;2023-02-03T07:23:59;26.00;99.90
56298;DHT22;42208;6.376;-10.782;2023-02-03T07:26:28;26.10;99.90
56298;DHT22;42208;6.376;-10.782;2023-02-03T07:28:56;26.10;99.90
56298;DHT22;42208;6.376;-10.782;2023-02-03T07:31:24;26.10;99.90
56298;DHT22;42208;6.376;-10.782;2023-02-03T07:33:53;26.10;99.90
56298;DHT22;42208;6.376;-10.782;2023-02-03T07:36:21;26.10;99.90
56298;DHT22;42208;6.376;-10.782;2023-02-03T07:38:50;26.10;99.90
56298;DHT22;42208;6.376;-10.782;2023-02-03T07:41:18;26.10;99.90
56298;DHT22;42208;6.376;-10.782;2023-02-03T07:43:47;26.10;99.90
56298;DHT22;42208;6.376;-10.782;2023-02-03T07:46:15;26.10;99.90
56298;DHT22;42208;6.376;-10.782;2023-02-03T07:48:43;26.10;99.90
56298;DHT22;42208;6.376;-10.782;2023-02-03T07:51:12;26.20;99.90
56298;DHT22;42208;6.376;-10.782;2023-02-03T07:53:40;26.20;99.90
56298;DHT22;42208;6.376;-10.782;2023-02-03T07:56:09;26.20;99.90
56298;DHT22;42208;6.376;-10.782;2023-02-03T07:58:37;26.20;99.90
56298;DHT22;42208;6.376;-10.782;2023-02-03T08:01:11;26.10;99.90
56298;DHT22;42208;6.376;-10.782;2023-02-03T08:03:40;26.20;99.90
56298;DHT22;42208;6.376;-10.782;2023-02-03T08:06:09;26.20;99.90
56298;DHT22;42208;6.376;-10.782;2023-02-03T08:08:37;26.30;99.90
56298;DHT22;42208;6.376;-10.782;2023-02-03T08:11:06;26.30;99.90
56298;DHT22;42208;6.376;-10.782;2023-02-03T08:13:35;26.30;99.90
56298;DHT22;42208;6.376;-10.782;2023-02-03T08:16:03;26.30;99.90
56298;DHT22;42208;6.376;-10.782;2023-02-03T08:18:32;26.40;99.90
56298;DHT22;42208;6.376;-10.782;2023-02-03T08:21:00;26.40;99.90
56298;DHT22;42208;6.376;-10.782;2023-02-03T08:23:29;26.40;99.90
56298;DHT22;42208;6.376;-10.782;2023-02-03T08:25:57;26.50;99.90
56298;DHT22;42208;6.376;-10.782;2023-02-03T08:28:26;26.50;99.90
56298;DHT22;42208;6.376;-10.782;2023-02-03T08:30:54;26.60;99.90
56298;DHT22;42208;6.376;-10.782;2023-02-03T08:33:23;26.70;99.90
56298;DHT22;42208;6.376;-10.782;2023-02-03T08:35:51;26.70;99.90
56298;DHT22;42208;6.376;-10.782;2023-02-03T08:38:19;26.80;99.90
56298;DHT22;42208;6.376;-10.782;2023-02-03T08:40:48;26.90;99.90
56298;DHT22;42208;6.376;-10.782;2023-02-03T08:43:16;26.90;99.90
56298;DHT22;42208;6.376;-10.782;2023-02-03T08:45:45;26.90;99.90
56298;DHT22;42208;6.376;-10.782;2023-02-03T08:48:13;27.00;99.90
56298;DHT22;42208;6.376;-10.782;2023-02-03T08:50:42;27.00;99.90
56298;DHT22;42208;6.376;-10.782;2023-02-03T08:53:12;27.00;99.90
56298;DHT22;42208;6.376;-10.782;2023-02-03T08:55:40;27.10;99.90
56298;DHT22;42208;6.376;-10.782;2023-02-03T08:58:08;27.10;99.90
56298;DHT22;42208;6.376;-10.782;2023-02-03T09:00:37;27.10;99.90
56298;DHT22;42208;6.376;-10.782;2023-02-03T09:03:05;27.20;99.90
56298;DHT22;42208;6.376;-10.782;2023-02-03T09:05:34;27.20;99.90
56298;DHT22;42208;6.376;-10.782;2023-02-03T09:08:02;27.30;99.90
56298;DHT22;42208;6.376;-10.782;2023-02-03T09:10:31;27.30;99.90
56298;DHT22;42208;6.376;-10.782;2023-02-03T09:12:59;27.40;99.90
56298;DHT22;42208;6.376;-10.782;2023-02-03T09:15:28;27.40;99.90
56298;DHT22;42208;6.376;-10.782;2023-02-03T09:17:56;27.50;99.90
56298;DHT22;42208;6.376;-10.782;2023-02-03T09:20:24;27.50;99.90
56298;DHT22;42208;6.376;-10.782;2023-02-03T09:22:53;27.50;99.90
56298;DHT22;42208;6.376;-10.782;2023-02-03T09:25:24;27.50;99.90
56298;DHT22;42208;6.376;-10.782;2023-02-03T09:27:53;27.50;99.90
56298;DHT22;42208;6.376;-10.782;2023-02-03T09:30:21;27.50;99.90
56298;DHT22;42208;6.376;-10.782;2023-02-03T09:32:52;27.50;99.90
56298;DHT22;42208;6.376;-10.782;2023-02-03T09:35:21;27.60;99.90
56298;DHT22;42208;6.376;-10.782;2023-02-03T09:37:49;27.70;99.90
56298;DHT22;42208;6.376;-10.782;2023-02-03T09:40:26;27.70;99.90
56298;DHT22;42208;6.376;-10.782;2023-02-03T09:49:01;27.90;99.90
56298;DHT22;42208;6.376;-10.782;2023-02-03T09:57:29;28.10;99.90
56298;DHT22;42208;6.376;-10.782;2023-02-03T10:00:00;28.20;99.90
56298;DHT22;42208;6.376;-10.782;2023-02-03T10:02:43;28.20;99.90
56298;DHT22;42208;6.376;-10.782;2023-02-03T10:11:23;28.30;99.90
56298;DHT22;42208;6.376;-10.782;2023-02-03T10:14:17;28.50;99.90
56298;DHT22;42208;6.376;-10.782;2023-02-03T10:17:10;28.50;99.90
56298;DHT22;42208;6.376;-10.782;2023-02-03T10:19:52;28.50;99.90
56298;DHT22;42208;6.376;-10.782;2023-02-03T10:22:26;28.50;99.90
56298;DHT22;42208;6.376;-10.782;2023-02-03T10:28:07;28.50;99.90
56298;DHT22;42208;6.376;-10.782;2023-02-03T10:30:41;28.60;99.90
56298;DHT22;42208;6.376;-10.782;2023-02-03T10:33:14;28.60;99.90
56298;DHT22;42208;6.376;-10.782;2023-02-03T10:38:58;28.80;99.90
56298;DHT22;42208;6.376;-10.782;2023-02-03T10:41:29;28.90;99.90
56298;DHT22;42208;6.376;-10.782;2023-02-03T10:44:02;28.90;99.90
56298;DHT22;42208;6.376;-10.782;2023-02-03T10:46:37;29.00;99.90
56298;DHT22;42208;6.376;-10.782;2023-02-03T10:49:08;29.00;99.90
56298;DHT22;42208;6.376;-10.782;2023-02-03T10:51:48;29.10;99.90
56298;DHT22;42208;6.376;-10.782;2023-02-03T10:54:34;29.20;99.90
56298;DHT22;42208;6.376;-10.782;2023-02-03T10:57:13;29.20;99.90
56298;DHT22;42208;6.376;-10.782;2023-02-03T10:59:46;29.40;99.90
56298;DHT22;42208;6.376;-10.782;2023-02-03T11:02:26;29.50;99.90
56298;DHT22;42208;6.376;-10.782;2023-02-03T11:07:38;29.30;99.90
56298;DHT22;42208;6.376;-10.782;2023-02-03T11:13:19;29.30;99.90
56298;DHT22;42208;6.376;-10.782;2023-02-03T11:16:06;29.30;99.90
56298;DHT22;42208;6.376;-10.782;2023-02-03T11:24:20;29.20;99.90
56298;DHT22;42208;6.376;-10.782;2023-02-03T11:27:02;29.20;99.90
56298;DHT22;42208;6.376;-10.782;2023-02-03T11:29:42;29.20;99.90
56298;DHT22;42208;6.376;-10.782;2023-02-03T11:35:02;29.40;99.90
56298;DHT22;42208;6.376;-10.782;2023-02-03T11:37:36;29.40;99.90
56298;DHT22;42208;6.376;-10.782;2023-02-03T11:42:41;29.60;99.90
56298;DHT22;42208;6.376;-10.782;2023-02-03T11:45:46;29.70;99.90
56298;DHT22;42208;6.376;-10.782;2023-02-03T11:48:29;29.80;99.90
56298;DHT22;42208;6.376;-10.782;2023-02-03T12:11:11;30.20;99.90
56298;DHT22;42208;6.376;-10.782;2023-02-03T12:14:26;30.10;99.90
56298;DHT22;42208;6.376;-10.782;2023-02-03T12:28:31;30.60;99.90
56298;DHT22;42208;6.376;-10.782;2023-02-03T12:36:55;30.80;99.90
56298;DHT22;42208;6.376;-10.782;2023-02-03T12:39:51;30.80;99.90
56298;DHT22;42208;6.376;-10.782;2023-02-03T12:42:39;30.80;99.90
56298;DHT22;42208;6.376;-10.782;2023-02-03T12:47:53;31.00;99.90
56298;DHT22;42208;6.376;-10.782;2023-02-03T12:50:45;31.00;99.90
56298;DHT22;42208;6.376;-10.782;2023-02-03T12:53:32;31.00;99.90
56298;DHT22;42208;6.376;-10.782;2023-02-03T12:56:11;31.10;99.90
56298;DHT22;42208;6.376;-10.782;2023-02-03T12:58:49;31.10;99.90
56298;DHT22;42208;6.376;-10.782;2023-02-03T13:01:33;31.30;99.90
56298;DHT22;42208;6.376;-10.782;2023-02-03T13:04:14;31.30;99.90
56298;DHT22;42208;6.376;-10.782;2023-02-03T13:06:50;31.00;99.90
56298;DHT22;42208;6.376;-10.782;2023-02-03T13:09:36;30.80;99.90
56298;DHT22;42208;6.376;-10.782;2023-02-03T13:12:34;31.00;99.90
56298;DHT22;42208;6.376;-10.782;2023-02-03T13:15:26;31.10;99.90
56298;DHT22;42208;6.376;-10.782;2023-02-03T13:18:00;31.10;99.90
56298;DHT22;42208;6.376;-10.782;2023-02-03T13:20:32;31.20;99.90
56298;DHT22;42208;6.376;-10.782;2023-02-03T13:23:04;31.10;99.90
56298;DHT22;42208;6.376;-10.782;2023-02-03T13:26:05;31.30;99.90
56298;DHT22;42208;6.376;-10.782;2023-02-03T13:28:47;31.10;99.90
56298;DHT22;42208;6.376;-10.782;2023-02-03T13:42:31;31.00;99.90
56298;DHT22;42208;6.376;-10.782;2023-02-03T13:45:26;31.00;99.90
56298;DHT22;42208;6.376;-10.782;2023-02-03T13:48:18;30.90;99.90
56298;DHT22;42208;6.376;-10.782;2023-02-03T13:50:50;30.90;99.90
56298;DHT22;42208;6.376;-10.782;2023-02-03T13:53:34;30.80;99.90
56298;DHT22;42208;6.376;-10.782;2023-02-03T13:56:07;30.90;99.90
56298;DHT22;42208;6.376;-10.782;2023-02-03T13:58:45;31.00;99.90
56298;DHT22;42208;6.376;-10.782;2023-02-03T14:01:35;31.00;99.90
56298;DHT22;42208;6.376;-10.782;2023-02-03T14:12:38;30.90;99.90
56298;DHT22;42208;6.376;-10.782;2023-02-03T14:23:19;31.30;99.90
56298;DHT22;42208;6.376;-10.782;2023-02-03T14:25:53;31.10;99.90
56298;DHT22;42208;6.376;-10.782;2023-02-03T14:28:30;31.10;99.90
56298;DHT22;42208;6.376;-10.782;2023-02-03T14:31:07;31.20;99.90
56298;DHT22;42208;6.376;-10.782;2023-02-03T14:36:37;31.30;99.90
56298;DHT22;42208;6.376;-10.782;2023-02-03T14:50:33;31.30;99.90
56298;DHT22;42208;6.376;-10.782;2023-02-03T14:55:50;31.70;99.90
56298;DHT22;42208;6.376;-10.782;2023-02-03T14:58:35;31.80;99.90
56298;DHT22;42208;6.376;-10.782;2023-02-03T15:01:04;31.70;99.90
56298;DHT22;42208;6.376;-10.782;2023-02-03T15:03:33;31.90;99.90
56298;DHT22;42208;6.376;-10.782;2023-02-03T15:06:03;31.90;99.90
56298;DHT22;42208;6.376;-10.782;2023-02-03T15:08:44;32.00;99.90
56298;DHT22;42208;6.376;-10.782;2023-02-03T15:11:29;32.10;99.90
56298;DHT22;42208;6.376;-10.782;2023-02-03T15:14:33;32.20;99.90
56298;DHT22;42208;6.376;-10.782;2023-02-03T15:17:20;32.20;99.90
56298;DHT22;42208;6.376;-10.782;2023-02-03T15:19:48;32.20;99.90
56298;DHT22;42208;6.376;-10.782;2023-02-03T15:22:21;32.10;99.90
56298;DHT22;42208;6.376;-10.782;2023-02-03T15:25:01;32.10;99.90
56298;DHT22;42208;6.376;-10.782;2023-02-03T15:27:31;32.10;99.90
56298;DHT22;42208;6.376;-10.782;2023-02-03T15:30:22;31.80;99.90
56298;DHT22;42208;6.376;-10.782;2023-02-03T15:32:59;31.70;99.90
56298;DHT22;42208;6.376;-10.782;2023-02-03T15:35:33;32.00;99.90
56298;DHT22;42208;6.376;-10.782;2023-02-03T15:38:28;31.90;99.90
56298;DHT22;42208;6.376;-10.782;2023-02-03T15:40:57;32.20;99.90
56298;DHT22;42208;6.376;-10.782;2023-02-03T15:43:38;32.00;99.90
56298;DHT22;42208;6.376;-10.782;2023-02-03T15:46:47;32.00;99.90
56298;DHT22;42208;6.376;-10.782;2023-02-03T15:49:12;32.20;99.90
56298;DHT22;42208;6.376;-10.782;2023-02-03T15:52:05;32.20;99.90
56298;DHT22;42208;6.376;-10.782;2023-02-03T15:54:38;32.30;99.90
56298;DHT22;42208;6.376;-10.782;2023-02-03T15:57:21;32.20;99.90
56298;DHT22;42208;6.376;-10.782;2023-02-03T15:59:57;32.20;99.90
56298;DHT22;42208;6.376;-10.782;2023-02-03T16:02:50;32.00;99.90
56298;DHT22;42208;6.376;-10.782;2023-02-03T16:05:31;32.30;99.90
56298;DHT22;42208;6.376;-10.782;2023-02-03T16:13:51;33.20;99.90
56298;DHT22;42208;6.376;-10.782;2023-02-03T16:16:21;33.20;99.90
56298;DHT22;42208;6.376;-10.782;2023-02-03T16:19:09;32.90;99.90
56298;DHT22;42208;6.376;-10.782;2023-02-03T16:24:35;32.60;99.90
56298;DHT22;42208;6.376;-10.782;2023-02-03T16:30:23;33.20;99.90
56298;DHT22;42208;6.376;-10.782;2023-02-03T16:33:18;33.30;99.90
56298;DHT22;42208;6.376;-10.782;2023-02-03T16:35:46;33.70;99.90
56298;DHT22;42208;6.376;-10.782;2023-02-03T16:38:16;33.40;99.90
56298;DHT22;42208;6.376;-10.782;2023-02-03T16:40:46;33.20;99.90
56298;DHT22;42208;6.376;-10.782;2023-02-03T16:43:15;33.40;99.90
56298;DHT22;42208;6.376;-10.782;2023-02-03T16:45:44;33.60;99.90
56298;DHT22;42208;6.376;-10.782;2023-02-03T16:48:13;33.50;99.90
56298;DHT22;42208;6.376;-10.782;2023-02-03T16:50:42;33.70;99.90
56298;DHT22;42208;6.376;-10.782;2023-02-03T16:53:16;33.50;99.90
56298;DHT22;42208;6.376;-10.782;2023-02-03T16:55:46;33.30;99.90
56298;DHT22;42208;6.376;-10.782;2023-02-03T16:58:14;32.50;99.90
56298;DHT22;42208;6.376;-10.782;2023-02-03T17:00:44;32.50;99.90
56298;DHT22;42208;6.376;-10.782;2023-02-03T17:03:15;32.80;99.90
56298;DHT22;42208;6.376;-10.782;2023-02-03T17:05:45;33.00;99.90
56298;DHT22;42208;6.376;-10.782;2023-02-03T17:08:17;32.70;99.90
56298;DHT22;42208;6.376;-10.782;2023-02-03T17:10:45;32.30;99.90
56298;DHT22;42208;6.376;-10.782;2023-02-03T17:13:14;32.40;99.90
56298;DHT22;42208;6.376;-10.782;2023-02-03T17:15:45;32.80;99.90
56298;DHT22;42208;6.376;-10.782;2023-02-03T17:18:14;32.80;99.90
56298;DHT22;42208;6.376;-10.782;2023-02-03T17:20:44;32.80;99.90
56298;DHT22;42208;6.376;-10.782;2023-02-03T17:23:13;32.50;99.90
56298;DHT22;42208;6.376;-10.782;2023-02-03T17:25:44;32.10;99.90
56298;DHT22;42208;6.376;-10.782;2023-02-03T17:28:12;32.00;99.90
56298;DHT22;42208;6.376;-10.782;2023-02-03T17:30:41;31.40;99.90
56298;DHT22;42208;6.376;-10.782;2023-02-03T17:33:10;31.40;99.90
56298;DHT22;42208;6.376;-10.782;2023-02-03T17:35:43;31.40;99.90
56298;DHT22;42208;6.376;-10.782;2023-02-03T17:38:12;31.30;99.90
56298;DHT22;42208;6.376;-10.782;2023-02-03T17:40:42;30.70;99.90
56298;DHT22;42208;6.376;-10.782;2023-02-03T17:43:28;30.50;99.90
56298;DHT22;42208;6.376;-10.782;2023-02-03T17:46:19;30.50;99.90
56298;DHT22;42208;6.376;-10.782;2023-02-03T17:49:05;30.40;99.90
56298;DHT22;42208;6.376;-10.782;2023-02-03T17:51:50;30.10;99.90
56298;DHT22;42208;6.376;-10.782;2023-02-03T17:54:35;30.20;99.90
56298;DHT22;42208;6.376;-10.782;2023-02-03T17:57:03;30.10;99.90
56298;DHT22;42208;6.376;-10.782;2023-02-03T17:59:32;29.90;99.90
56298;DHT22;42208;6.376;-10.782;2023-02-03T18:02:00;29.70;99.90
56298;DHT22;42208;6.376;-10.782;2023-02-03T18:04:28;29.50;99.90
56298;DHT22;42208;6.376;-10.782;2023-02-03T18:06:57;29.40;99.90
56298;DHT22;42208;6.376;-10.782;2023-02-03T18:09:28;29.40;99.90
56298;DHT22;42208;6.376;-10.782;2023-02-03T18:11:56;29.50;99.90
56298;DHT22;42208;6.376;-10.782;2023-02-03T18:14:24;29.50;99.90
56298;DHT22;42208;6.376;-10.782;2023-02-03T18:16:52;29.40;99.90
56298;DHT22;42208;6.376;-10.782;2023-02-03T18:19:21;29.30;99.90
56298;DHT22;42208;6.376;-10.782;2023-02-03T18:21:49;29.10;99.90
56298;DHT22;42208;6.376;-10.782;2023-02-03T18:24:18;28.90;99.90
56298;DHT22;42208;6.376;-10.782;2023-02-03T18:26:50;28.80;99.90
56298;DHT22;42208;6.376;-10.782;2023-02-03T18:29:19;28.80;99.90
56298;DHT22;42208;6.376;-10.782;2023-02-03T18:31:48;28.80;99.90
56298;DHT22;42208;6.376;-10.782;2023-02-03T18:34:16;28.60;99.90
56298;DHT22;42208;6.376;-10.782;2023-02-03T18:36:45;28.60;99.90